ePrivacy and GPDR Cookie Consent by Cookie Consent
EmailTwitter


Observations de surface / Québec / CYUL (71627)

Régions: Québec | Canada | États-Unis | Europe | France | UK | Ailleurs
Station
Affichage
Infos & localisation pour CYUL (71627) | Aide pour décoder les METARs

Observations prises le 2022-07-05 à 00H00 UTC à MONTREAL INTL A, QB (CYUL)

Etat du ciel: partiellement nuageux.

Température: 24.0 Celsius

Point de rosée: 10.0 Celsius

Humidité relative: 41%

Indice Humidex 25.

Vents: Ouest à 13 km/h ou 7 noeuds.

Pression au niveau moyen de la mer: 101.72 kilopascals.

Calage altimétrique: 101.69 kilopascals ou 30.03 pouces de mercure.

Visibilité horizontale: 15.00 milles terrestres ou 24.00 kilomètres.

Hauteur du plafond: 7620 mètres ( 25000 pieds ).

Observation METAR:

CYUL 050000Z 27007KT 15SM FEW065 FEW100 BKN250 24/10 A3003 RMK CF1AC2CI5 CF TR

SLP172 DENSITY ALT 1100FT=